Unadilla, Georgia
Current Conditions -  °F | °C
As of 9:35 AM on Friday 28 Nov 2014 (Local Time) from KPXE Reporting Station
Clear Clear  
Wind Chill: 35°   Ceiling: Unl
Heat Index: 40°   Visibility: 10mi
Dew Point: 27°   Wind: 7mph
Humidity: 59%   Direction: 40°NE
Pressure: 30.43"   Gusts: NA
Location:  32.26°N, 83.74°W
Report Text: KPXE 281435Z AUTO 04006KT 10SM CLR 05/M03 A3043 RMK AO2 T00451028
Loading
Personal Weather Stations






























Interactive Weather Map New forecast layout! Learn more

10-Day Weather Forecast

Advertisements
Track Severe Weather on mobile